createdAt,value
2018-10-21T00:01:51.028Z,46.93
2018-10-21T00:04:20.620Z,33.45
2018-10-21T00:06:50.179Z,16.43
2018-10-21T00:09:19.814Z,11.28
2018-10-21T00:11:49.422Z,13.43
2018-10-21T00:14:19.250Z,16.70
2018-10-21T00:16:48.980Z,14.47
2018-10-21T00:19:18.599Z,13.17
2018-10-21T00:21:48.291Z,13.13
2018-10-21T00:24:17.898Z,11.40
2018-10-21T00:26:47.619Z,13.83
2018-10-21T00:29:17.251Z,42.67
2018-10-21T00:31:47.486Z,114.88
2018-10-21T00:34:17.210Z,60.90
2018-10-21T00:36:46.840Z,19.87
2018-10-21T00:39:16.613Z,13.67
2018-10-21T00:41:46.269Z,15.47
2018-10-21T00:44:15.764Z,13.63
2018-10-21T00:46:45.477Z,13.13
2018-10-21T00:49:15.152Z,12.05
2018-10-21T00:51:45.069Z,25.60
2018-10-21T00:54:15.773Z,25.30
2018-10-21T00:56:47.351Z,24.80
2018-10-21T00:59:17.061Z,17.60
2018-10-21T01:01:46.679Z,15.43
2018-10-21T01:04:16.296Z,14.65
2018-10-21T01:06:45.961Z,11.83
2018-10-21T01:09:15.699Z,12.27
2018-10-21T01:11:45.139Z,11.40
2018-10-21T01:14:14.798Z,12.80
2018-10-21T01:16:44.305Z,51.90
2018-10-21T01:19:13.859Z,86.63
2018-10-21T01:21:44.263Z,27.80
2018-10-21T01:24:16.895Z,14.40
2018-10-21T01:26:46.594Z,15.17
2018-10-21T01:29:16.243Z,10.53
2018-10-21T01:31:45.808Z,12.10
2018-10-21T01:34:15.585Z,14.50
2018-10-21T01:36:45.128Z,12.57
2018-10-21T01:39:15.028Z,40.70
2018-10-21T01:41:44.711Z,70.47
2018-10-21T01:44:14.421Z,36.20
2018-10-21T01:46:44.010Z,15.40
2018-10-21T01:49:13.500Z,13.90
2018-10-21T01:51:43.251Z,14.90
2018-10-21T01:54:12.864Z,13.30
2018-10-21T01:56:42.396Z,14.40
2018-10-21T01:59:12.150Z,16.40
2018-10-21T02:01:41.920Z,12.17
2018-10-21T02:04:11.553Z,11.22
2018-10-21T02:06:41.394Z,12.93
2018-10-21T02:09:11.072Z,11.90
2018-10-21T02:11:40.703Z,12.50
2018-10-21T02:14:10.212Z,13.03
2018-10-21T02:16:39.774Z,10.67
2018-10-21T02:19:10.580Z,10.43
2018-10-21T02:21:40.254Z,13.30
2018-10-21T02:24:09.806Z,13.43
2018-10-21T02:26:39.416Z,10.37
2018-10-21T02:29:09.009Z,10.90
2018-10-21T02:31:38.539Z,10.80
2018-10-21T02:34:08.086Z,11.33
2018-10-21T02:36:37.751Z,10.43
2018-10-21T02:39:10.391Z,14.00
2018-10-21T02:42:00.429Z,11.37
2018-10-21T02:44:29.939Z,11.73
2018-10-21T02:46:59.489Z,8.63
2018-10-21T02:49:29.105Z,11.87
2018-10-21T02:52:04.253Z,10.73
2018-10-21T02:54:33.889Z,14.40
2018-10-21T02:57:04.549Z,11.57
2018-10-21T02:59:34.291Z,9.13
2018-10-21T03:02:04.115Z,9.37
2018-10-21T03:04:34.186Z,11.33
2018-10-21T03:07:03.772Z,12.40
2018-10-21T03:09:33.574Z,10.40
2018-10-21T03:12:03.287Z,9.60
2018-10-21T03:14:32.806Z,11.08
2018-10-21T03:17:02.415Z,9.63
2018-10-21T03:19:32.193Z,10.90
2018-10-21T03:22:01.970Z,8.73
2018-10-21T03:24:31.702Z,9.93
2018-10-21T03:27:07.827Z,11.23
2018-10-21T03:29:37.258Z,10.57
2018-10-21T03:32:07.335Z,13.17
2018-10-21T03:34:36.886Z,14.70
2018-10-21T03:37:06.685Z,12.23
2018-10-21T03:39:36.206Z,10.38
2018-10-21T03:42:05.760Z,15.15
2018-10-21T03:44:35.267Z,13.20
2018-10-21T03:47:04.925Z,16.57
2018-10-21T03:49:34.506Z,12.60
2018-10-21T03:52:04.115Z,10.58
2018-10-21T03:54:33.876Z,11.90
2018-10-21T03:57:03.449Z,12.00
2018-10-21T03:59:32.992Z,10.63
2018-10-21T04:02:02.539Z,11.07
2018-10-21T04:04:33.126Z,10.97
2018-10-21T04:07:02.825Z,10.17
2018-10-21T04:09:32.420Z,10.67
2018-10-21T04:12:02.025Z,9.53
2018-10-21T04:14:31.501Z,14.83
2018-10-21T04:17:01.159Z,11.40
2018-10-21T04:19:30.806Z,12.87
2018-10-21T04:22:00.657Z,10.37
2018-10-21T04:24:30.105Z,10.60
2018-10-21T04:26:59.845Z,10.13
2018-10-21T04:29:29.389Z,11.20
2018-10-21T04:31:59.016Z,10.30
2018-10-21T04:34:28.592Z,10.20
2018-10-21T04:37:12.152Z,12.50
2018-10-21T04:39:58.497Z,10.00
2018-10-21T04:42:28.009Z,12.47
2018-10-21T04:44:58.010Z,11.25
2018-10-21T04:47:27.940Z,11.63
2018-10-21T04:49:57.466Z,14.77
2018-10-21T04:52:27.746Z,11.23
2018-10-21T04:55:02.941Z,12.40
2018-10-21T04:57:32.500Z,14.43
2018-10-21T05:00:02.105Z,10.77
2018-10-21T05:02:32.402Z,8.87
2018-10-21T05:05:02.832Z,12.55
2018-10-21T05:07:32.472Z,11.47
2018-10-21T05:10:02.124Z,8.60
2018-10-21T05:12:31.587Z,10.23
2018-10-21T05:15:01.059Z,10.93
2018-10-21T05:17:30.894Z,10.03
2018-10-21T05:20:00.645Z,11.50
2018-10-21T05:22:30.202Z,10.97
2018-10-21T05:24:59.920Z,13.20
2018-10-21T05:27:29.496Z,10.53
2018-10-21T05:29:58.934Z,13.40
2018-10-21T05:32:28.526Z,12.13
2018-10-21T05:34:58.042Z,8.93
2018-10-21T05:37:27.744Z,11.73
2018-10-21T05:39:57.525Z,11.57
2018-10-21T05:42:26.996Z,10.10
2018-10-21T05:44:56.561Z,10.53
2018-10-21T05:47:26.272Z,10.32
2018-10-21T05:49:55.831Z,12.17
2018-10-21T05:52:25.875Z,11.87
2018-10-21T05:54:56.492Z,10.03
2018-10-21T05:57:26.056Z,13.83
2018-10-21T05:59:55.652Z,10.03
2018-10-21T06:02:25.316Z,11.70
2018-10-21T06:04:55.378Z,28.27
2018-10-21T06:07:24.971Z,30.43
2018-10-21T06:09:54.590Z,17.43
2018-10-21T06:12:24.540Z,11.13
2018-10-21T06:14:54.203Z,9.10
2018-10-21T06:17:28.541Z,10.00
2018-10-21T06:21:02.217Z,12.50
2018-10-21T06:23:31.731Z,11.23
2018-10-21T06:26:01.512Z,11.30
2018-10-21T06:28:31.016Z,9.07
2018-10-21T06:31:00.612Z,11.13
2018-10-21T06:33:30.154Z,12.60
2018-10-21T06:36:00.201Z,10.97
2018-10-21T06:38:29.713Z,10.00
2018-10-21T06:40:59.185Z,10.97
2018-10-21T06:43:30.037Z,11.10
2018-10-21T06:45:59.698Z,9.83
2018-10-21T06:48:29.512Z,10.70
2018-10-21T06:50:59.077Z,11.60
2018-10-21T06:53:28.604Z,12.33
2018-10-21T06:55:58.176Z,11.70
2018-10-21T06:58:27.682Z,13.20
2018-10-21T07:00:58.536Z,10.43
2018-10-21T07:06:26.235Z,13.57
2018-10-21T07:08:59.561Z,10.10
2018-10-21T07:11:29.200Z,9.23
2018-10-21T07:13:59.672Z,11.00
2018-10-21T07:16:29.403Z,10.47
2018-10-21T07:18:59.012Z,13.00
2018-10-21T07:21:29.181Z,12.53
2018-10-21T07:23:58.681Z,13.88
2018-10-21T07:26:28.341Z,16.03
2018-10-21T07:28:57.983Z,21.00
2018-10-21T07:31:27.764Z,22.17
2018-10-21T07:33:57.563Z,18.97
2018-10-21T07:36:27.290Z,25.87
2018-10-21T07:38:56.837Z,28.60
2018-10-21T07:41:26.788Z,27.37
2018-10-21T07:43:56.530Z,16.77
2018-10-21T07:46:26.474Z,25.03
2018-10-21T07:48:56.275Z,20.40
2018-10-21T07:51:25.812Z,20.67
2018-10-21T07:53:55.552Z,19.90
2018-10-21T07:56:26.316Z,22.63
2018-10-21T07:58:57.030Z,26.15
2018-10-21T08:01:26.821Z,22.03
2018-10-21T08:03:56.319Z,20.85
2018-10-21T08:06:42.692Z,24.33
2018-10-21T08:09:12.988Z,21.77
2018-10-21T08:11:42.709Z,27.77
2018-10-21T08:14:12.669Z,19.83
2018-10-21T08:16:42.646Z,23.22
2018-10-21T08:19:12.351Z,23.93
2018-10-21T08:21:42.027Z,22.23
2018-10-21T08:24:11.887Z,25.00
2018-10-21T08:26:41.581Z,24.47
2018-10-21T08:29:11.552Z,20.65
2018-10-21T08:31:41.229Z,25.40
2018-10-21T08:34:11.119Z,24.30
2018-10-21T08:36:40.984Z,19.40
2018-10-21T08:39:10.862Z,24.45
2018-10-21T08:41:40.647Z,25.23
2018-10-21T08:44:10.358Z,21.67
2018-10-21T08:46:40.386Z,23.73
2018-10-21T08:49:10.127Z,18.92
2018-10-21T08:51:39.953Z,22.27
2018-10-21T08:54:09.860Z,21.87
2018-10-21T08:56:39.608Z,19.10
2018-10-21T08:59:09.595Z,22.37
2018-10-21T09:01:39.443Z,27.77
2018-10-21T09:04:09.702Z,20.80
2018-10-21T09:06:39.394Z,26.40
2018-10-21T09:09:11.726Z,23.38
2018-10-21T09:11:42.072Z,38.58
2018-10-21T09:14:12.592Z,23.37
2018-10-21T09:16:42.485Z,23.50
2018-10-21T09:19:12.306Z,21.67
2018-10-21T09:21:42.092Z,28.70
2018-10-21T09:24:11.933Z,19.67
2018-10-21T09:26:41.826Z,25.43
2018-10-21T09:29:11.666Z,23.60
2018-10-21T09:31:41.392Z,12.77
2018-10-21T09:34:11.402Z,14.97
2018-10-21T09:36:41.294Z,19.03
2018-10-21T09:39:13.493Z,29.32
2018-10-21T09:41:43.994Z,25.23
2018-10-21T09:44:13.916Z,22.80
2018-10-21T09:46:43.658Z,22.13
2018-10-21T09:49:13.562Z,20.73
2018-10-21T09:51:43.611Z,18.67
2018-10-21T09:54:13.523Z,18.87
2018-10-21T09:56:43.551Z,18.83
2018-10-21T09:59:13.498Z,17.13
2018-10-21T10:01:48.746Z,19.05
2018-10-21T10:04:18.585Z,15.37
2018-10-21T10:06:48.736Z,15.90
2018-10-21T10:09:18.553Z,15.53
2018-10-21T10:11:48.657Z,13.77
2018-10-21T10:14:18.912Z,11.87
2018-10-21T10:16:48.931Z,14.73
2018-10-21T10:19:18.914Z,15.13
2018-10-21T10:21:48.875Z,11.63
2018-10-21T10:24:18.666Z,12.03
2018-10-21T10:26:48.821Z,16.97
2018-10-21T10:29:18.869Z,7.70
2018-10-21T10:31:48.825Z,10.63
2018-10-21T10:34:19.034Z,12.37
2018-10-21T10:36:48.774Z,7.20
2018-10-21T10:39:18.652Z,10.47
2018-10-21T10:41:48.615Z,8.18
2018-10-21T10:44:18.502Z,8.33
2018-10-21T10:46:48.379Z,10.87
2018-10-21T10:49:18.360Z,6.90
2018-10-21T10:51:48.399Z,7.47
2018-10-21T10:54:18.175Z,6.33
2018-10-21T10:56:48.354Z,6.13
2018-10-21T10:59:18.733Z,9.23
2018-10-21T11:01:48.863Z,6.90
2018-10-21T11:04:19.116Z,5.80
2018-10-21T11:06:49.498Z,6.20
2018-10-21T11:09:19.325Z,7.08
2018-10-21T11:11:49.466Z,8.80
2018-10-21T11:14:19.241Z,8.08
2018-10-21T11:16:49.241Z,7.17
2018-10-21T11:19:20.813Z,9.50
2018-10-21T11:21:51.042Z,8.07
2018-10-21T11:24:26.957Z,7.33
2018-10-21T11:26:57.403Z,8.10
2018-10-21T11:29:31.723Z,12.87
2018-10-21T11:32:01.542Z,8.80
2018-10-21T11:34:31.405Z,9.63
2018-10-21T11:37:01.256Z,7.67
2018-10-21T11:39:31.377Z,7.33
2018-10-21T11:42:01.170Z,6.85
2018-10-21T11:44:31.089Z,5.60
2018-10-21T11:47:01.072Z,6.57
2018-10-21T11:49:30.985Z,7.72
2018-10-21T11:52:00.918Z,5.77
2018-10-21T11:54:30.791Z,7.93
2018-10-21T11:57:00.513Z,8.73
2018-10-21T11:59:30.318Z,7.67
2018-10-21T12:06:58.062Z,9.83
2018-10-21T12:09:27.922Z,4.90
2018-10-21T12:11:57.808Z,5.22
2018-10-21T12:14:27.611Z,6.40
2018-10-21T12:16:57.365Z,7.43
2018-10-21T12:19:27.336Z,25.85
2018-10-21T12:21:57.245Z,10.37
2018-10-21T12:24:27.092Z,6.70
2018-10-21T12:26:56.958Z,5.50
2018-10-21T12:29:26.738Z,6.45
2018-10-21T12:31:56.802Z,8.77
2018-10-21T12:34:26.681Z,5.72
2018-10-21T12:36:56.668Z,7.47
2018-10-21T12:39:26.554Z,6.23
2018-10-21T12:41:56.643Z,8.83
2018-10-21T12:44:26.543Z,5.73
2018-10-21T12:46:56.544Z,19.83
2018-10-21T12:49:26.527Z,5.77
2018-10-21T12:51:56.317Z,4.93
2018-10-21T12:54:27.060Z,7.92
2018-10-21T12:56:58.137Z,4.37
2018-10-21T12:59:28.047Z,6.53
2018-10-21T13:01:58.063Z,5.10
2018-10-21T13:04:27.971Z,5.97
2018-10-21T13:06:58.011Z,7.03
2018-10-21T13:09:27.662Z,6.37
2018-10-21T13:11:57.402Z,7.50
2018-10-21T13:14:27.140Z,5.90
2018-10-21T13:16:57.241Z,6.20
2018-10-21T13:19:27.172Z,4.73
2018-10-21T13:21:57.228Z,4.63
2018-10-21T13:24:27.195Z,8.03
2018-10-21T13:26:57.120Z,6.40
2018-10-21T13:29:27.180Z,25.32
2018-10-21T13:31:57.218Z,14.43
2018-10-21T13:34:27.196Z,10.43
2018-10-21T13:36:57.425Z,9.33
2018-10-21T13:39:27.207Z,7.47
2018-10-21T13:41:57.205Z,7.47
2018-10-21T13:44:27.084Z,6.37
2018-10-21T13:46:56.856Z,5.40
2018-10-21T13:49:26.712Z,7.07
2018-10-21T13:51:56.507Z,3.63
2018-10-21T13:54:26.144Z,7.87
2018-10-21T13:56:55.934Z,4.70
2018-10-21T13:59:25.818Z,5.40
2018-10-21T14:01:55.612Z,5.73
2018-10-21T14:04:25.490Z,4.20
2018-10-21T14:06:55.201Z,3.72
2018-10-21T14:09:24.998Z,5.37
2018-10-21T14:11:54.644Z,5.93
2018-10-21T14:14:24.292Z,5.05
2018-10-21T14:16:54.149Z,5.20
2018-10-21T14:19:23.918Z,5.80
2018-10-21T14:21:53.578Z,4.33
2018-10-21T14:24:23.402Z,5.40
2018-10-21T14:26:53.149Z,6.00
2018-10-21T14:29:23.184Z,4.93
2018-10-21T14:31:52.827Z,5.70
2018-10-21T14:34:22.560Z,38.43
2018-10-21T14:36:52.327Z,5.83
2018-10-21T14:39:22.225Z,3.97
2018-10-21T14:41:52.029Z,4.53
2018-10-21T14:44:21.936Z,6.03
2018-10-21T14:46:52.030Z,3.67
2018-10-21T14:49:22.263Z,4.57
2018-10-21T14:51:52.368Z,4.43
2018-10-21T14:54:22.444Z,7.07
2018-10-21T14:56:52.310Z,5.87
2018-10-21T14:59:22.347Z,4.43
2018-10-21T15:01:52.314Z,5.20
2018-10-21T15:04:22.107Z,3.97
2018-10-21T15:06:52.134Z,9.27
2018-10-21T15:09:22.005Z,4.50
2018-10-21T15:11:51.924Z,5.83
2018-10-21T15:14:21.935Z,4.40
2018-10-21T15:16:52.088Z,4.90
2018-10-21T15:19:21.976Z,5.70
2018-10-21T15:21:51.801Z,3.50
2018-10-21T15:24:21.631Z,4.53
2018-10-21T15:26:51.374Z,5.63
2018-10-21T15:29:21.468Z,3.70
2018-10-21T15:31:51.244Z,5.30
2018-10-21T15:34:21.038Z,3.80
2018-10-21T15:36:50.866Z,6.90
2018-10-21T15:39:20.501Z,7.77
2018-10-21T15:41:50.620Z,29.77
2018-10-21T15:44:20.516Z,8.23
2018-10-21T15:46:50.215Z,5.53
2018-10-21T15:49:20.235Z,4.67
2018-10-21T15:51:50.188Z,4.70
2018-10-21T15:54:20.106Z,4.77
2018-10-21T15:56:49.915Z,4.40
2018-10-21T15:59:19.968Z,3.55
2018-10-21T16:01:49.687Z,6.78
2018-10-21T16:04:19.662Z,9.80
2018-10-21T16:06:49.544Z,4.00
2018-10-21T16:09:19.304Z,5.30
2018-10-21T16:11:49.089Z,5.20
2018-10-21T16:14:19.127Z,5.03
2018-10-21T16:16:49.009Z,4.00
2018-10-21T16:19:18.917Z,8.40
2018-10-21T16:21:48.820Z,6.83
2018-10-21T16:24:18.660Z,11.13
2018-10-21T16:31:46.367Z,11.13
2018-10-21T16:34:16.836Z,25.73
2018-10-21T16:36:47.048Z,30.97
2018-10-21T16:39:17.707Z,39.07
2018-10-21T16:41:48.355Z,12.67
2018-10-21T16:44:18.408Z,6.03
2018-10-21T16:46:48.575Z,6.17
2018-10-21T16:49:18.769Z,6.73
2018-10-21T16:51:49.291Z,8.03
2018-10-21T16:54:20.632Z,5.67
2018-10-21T16:56:50.946Z,9.33
2018-10-21T16:59:21.323Z,12.23
2018-10-21T17:01:51.515Z,15.10
2018-10-21T17:04:21.460Z,12.57
2018-10-21T17:06:51.303Z,6.93
2018-10-21T17:09:21.148Z,7.40
2018-10-21T17:11:51.693Z,8.07
2018-10-21T17:14:21.703Z,8.87
2018-10-21T17:16:51.562Z,6.45
2018-10-21T17:19:21.419Z,10.00
2018-10-21T17:21:51.395Z,7.63
2018-10-21T17:24:22.341Z,10.80
2018-10-21T17:26:52.240Z,5.93
2018-10-21T17:29:22.192Z,10.90
2018-10-21T17:31:51.944Z,9.60
2018-10-21T17:34:21.909Z,12.40
2018-10-21T17:36:51.859Z,7.65
2018-10-21T17:39:21.749Z,12.82
2018-10-21T17:41:51.993Z,11.10
2018-10-21T17:44:22.136Z,11.00
2018-10-21T17:46:51.994Z,7.37
2018-10-21T17:49:22.012Z,22.67
2018-10-21T17:51:53.051Z,89.55
2018-10-21T17:54:23.119Z,31.83
2018-10-21T17:56:58.605Z,9.87
2018-10-21T17:59:29.172Z,7.27
2018-10-21T18:01:59.432Z,10.33
2018-10-21T18:04:29.216Z,8.73
2018-10-21T18:06:59.326Z,9.73
2018-10-21T18:09:29.214Z,12.57
2018-10-21T18:11:59.270Z,8.17
2018-10-21T18:14:29.025Z,9.57
2018-10-21T18:16:59.065Z,8.43
2018-10-21T18:19:29.125Z,12.28
2018-10-21T18:21:59.259Z,8.27
2018-10-21T18:24:29.193Z,14.00
2018-10-21T18:26:59.005Z,8.90
2018-10-21T18:29:29.173Z,9.77
2018-10-21T18:31:59.085Z,8.93
2018-10-21T18:34:28.984Z,12.80
2018-10-21T18:36:58.929Z,11.30
2018-10-21T18:39:29.119Z,10.00
2018-10-21T18:41:58.910Z,13.88
2018-10-21T18:44:28.773Z,18.47
2018-10-21T18:46:58.655Z,18.50
2018-10-21T18:49:28.695Z,9.93
2018-10-21T18:51:58.833Z,10.77
2018-10-21T18:54:29.039Z,12.30
2018-10-21T18:56:59.232Z,11.30
2018-10-21T18:59:29.338Z,15.17
2018-10-21T19:02:00.338Z,14.58
2018-10-21T19:04:31.208Z,9.13
2018-10-21T19:07:01.244Z,7.20
2018-10-21T19:09:31.044Z,8.67
2018-10-21T19:12:00.863Z,7.50
2018-10-21T19:14:30.813Z,9.57
2018-10-21T19:17:01.239Z,11.90
2018-10-21T19:19:31.165Z,10.73
2018-10-21T19:22:01.216Z,12.00
2018-10-21T19:24:31.335Z,17.07
2018-10-21T19:27:01.257Z,13.13
2018-10-21T19:29:31.289Z,16.62
2018-10-21T19:32:01.356Z,16.33
2018-10-21T19:34:31.458Z,18.63
2018-10-21T19:37:01.619Z,12.60
2018-10-21T19:39:31.743Z,13.83
2018-10-21T19:42:01.860Z,14.17
2018-10-21T19:44:32.022Z,14.28
2018-10-21T19:47:01.920Z,13.60
2018-10-21T19:49:31.781Z,15.27
2018-10-21T19:52:01.762Z,16.77
2018-10-21T19:54:31.927Z,13.13
2018-10-21T19:57:01.806Z,11.38
2018-10-21T19:59:31.783Z,14.90
2018-10-21T20:02:01.943Z,13.50
2018-10-21T20:04:31.794Z,12.60
2018-10-21T20:07:02.348Z,13.98
2018-10-21T20:09:32.340Z,12.68
2018-10-21T20:12:02.450Z,14.63
2018-10-21T20:14:32.351Z,12.10
2018-10-21T20:17:02.498Z,12.07
2018-10-21T20:19:32.490Z,10.77
2018-10-21T20:22:02.454Z,15.13
2018-10-21T20:24:32.376Z,13.90
2018-10-21T20:27:02.394Z,12.43
2018-10-21T20:29:32.184Z,11.50
2018-10-21T20:32:02.036Z,14.15
2018-10-21T20:34:31.835Z,12.03
2018-10-21T20:37:01.940Z,13.30
2018-10-21T20:39:31.952Z,13.20
2018-10-21T20:42:01.915Z,12.00
2018-10-21T20:44:31.716Z,10.73
2018-10-21T20:47:01.501Z,13.93
2018-10-21T20:49:31.474Z,10.93
2018-10-21T20:52:01.291Z,14.63
2018-10-21T20:54:36.355Z,8.73
2018-10-21T20:57:11.121Z,10.40
2018-10-21T20:59:42.048Z,11.27
2018-10-21T21:02:13.060Z,12.60
2018-10-21T21:04:42.993Z,12.20
2018-10-21T21:07:12.973Z,10.93
2018-10-21T21:09:42.918Z,9.93
2018-10-21T21:12:13.089Z,9.80
2018-10-21T21:14:42.983Z,12.47
2018-10-21T21:17:12.744Z,12.40
2018-10-21T21:19:42.726Z,10.70
2018-10-21T21:22:12.550Z,11.60
2018-10-21T21:24:42.267Z,11.88
2018-10-21T21:27:12.067Z,10.33
2018-10-21T21:29:42.008Z,9.07
2018-10-21T21:32:11.691Z,10.27
2018-10-21T21:34:41.546Z,10.87
2018-10-21T21:37:11.306Z,9.10
2018-10-21T21:39:41.195Z,16.73
2018-10-21T21:42:11.362Z,11.77
2018-10-21T21:44:41.119Z,9.40
2018-10-21T21:47:11.045Z,9.48
2018-10-21T21:49:40.666Z,11.93
2018-10-21T21:52:10.696Z,13.93
2018-10-21T21:54:40.525Z,10.00
2018-10-21T21:57:10.526Z,10.93
2018-10-21T21:59:40.201Z,8.43
2018-10-21T22:02:09.918Z,8.77
2018-10-21T22:04:39.571Z,11.45
2018-10-21T22:07:09.755Z,11.70
2018-10-21T22:09:39.493Z,11.93
2018-10-21T22:12:09.173Z,12.33
2018-10-21T22:14:38.880Z,10.93
2018-10-21T22:17:08.715Z,9.43
2018-10-21T22:19:39.609Z,10.50
2018-10-21T22:22:09.486Z,9.20
2018-10-21T22:24:39.274Z,12.93
2018-10-21T22:27:09.147Z,9.87
2018-10-21T22:29:38.994Z,8.53
2018-10-21T22:32:08.764Z,10.20
2018-10-21T22:34:38.560Z,11.17
2018-10-21T22:37:08.437Z,12.73
2018-10-21T22:39:38.363Z,11.57
2018-10-21T22:42:08.160Z,8.97
2018-10-21T22:44:38.023Z,13.53
2018-10-21T22:47:07.772Z,11.73
2018-10-21T22:49:37.506Z,15.13
2018-10-21T22:52:07.405Z,9.87
2018-10-21T22:54:37.141Z,10.30
2018-10-21T22:57:12.414Z,8.03
2018-10-21T22:59:42.993Z,8.70
2018-10-21T23:02:13.273Z,10.30
2018-10-21T23:04:43.688Z,8.08
2018-10-21T23:07:13.454Z,11.03
2018-10-21T23:09:43.198Z,11.75
2018-10-21T23:12:13.467Z,10.63
2018-10-21T23:14:43.368Z,11.25
2018-10-21T23:17:13.375Z,9.55
2018-10-21T23:19:47.630Z,12.37
2018-10-21T23:22:17.395Z,8.47
2018-10-21T23:24:46.909Z,9.13
2018-10-21T23:27:17.741Z,13.80
2018-10-21T23:29:47.531Z,13.33
2018-10-21T23:32:17.098Z,9.00
2018-10-21T23:34:46.775Z,11.90
2018-10-21T23:37:16.574Z,12.47
2018-10-21T23:39:46.468Z,38.60
2018-10-21T23:42:16.200Z,54.67
2018-10-21T23:44:46.044Z,15.25
2018-10-21T23:47:15.710Z,10.25
2018-10-21T23:49:45.323Z,10.53
2018-10-21T23:52:15.204Z,11.00
2018-10-21T23:54:45.013Z,10.13
2018-10-21T23:57:14.605Z,8.73
2018-10-21T23:59:44.159Z,9.47
